sensor_id;sensor_type;location;lat;lon;timestamp;P1;durP1;ratioP1;P2;durP2;ratioP2
351;SDS011;164;50.784;6.496;2023-02-01T00:01:53;14.35;;;6.00;;
351;SDS011;164;50.784;6.496;2023-02-01T00:04:20;10.88;;;6.30;;
351;SDS011;164;50.784;6.496;2023-02-01T00:06:48;13.10;;;5.30;;
351;SDS011;164;50.784;6.496;2023-02-01T00:09:15;8.68;;;5.88;;
351;SDS011;164;50.784;6.496;2023-02-01T00:11:43;22.00;;;6.32;;
351;SDS011;164;50.784;6.496;2023-02-01T00:14:10;8.90;;;5.90;;
351;SDS011;164;50.784;6.496;2023-02-01T00:16:39;9.52;;;5.90;;
351;SDS011;164;50.784;6.496;2023-02-01T00:19:07;11.02;;;6.00;;
351;SDS011;164;50.784;6.496;2023-02-01T00:21:35;11.48;;;5.80;;
351;SDS011;164;50.784;6.496;2023-02-01T00:24:02;9.65;;;5.03;;
351;SDS011;164;50.784;6.496;2023-02-01T00:26:31;8.18;;;5.53;;
351;SDS011;164;50.784;6.496;2023-02-01T00:28:59;10.68;;;6.80;;
351;SDS011;164;50.784;6.496;2023-02-01T00:31:26;9.57;;;6.45;;
351;SDS011;164;50.784;6.496;2023-02-01T00:33:55;13.07;;;6.45;;
351;SDS011;164;50.784;6.496;2023-02-01T00:36:22;9.02;;;6.82;;
351;SDS011;164;50.784;6.496;2023-02-01T00:38:49;11.95;;;6.90;;
351;SDS011;164;50.784;6.496;2023-02-01T00:41:17;14.85;;;7.97;;
351;SDS011;164;50.784;6.496;2023-02-01T00:43:45;10.00;;;8.00;;
351;SDS011;164;50.784;6.496;2023-02-01T00:46:13;13.88;;;7.75;;
351;SDS011;164;50.784;6.496;2023-02-01T00:48:40;13.02;;;7.18;;
351;SDS011;164;50.784;6.496;2023-02-01T00:51:09;12.18;;;7.90;;
351;SDS011;164;50.784;6.496;2023-02-01T00:53:37;13.10;;;7.35;;
351;SDS011;164;50.784;6.496;2023-02-01T00:56:04;11.80;;;7.15;;
351;SDS011;164;50.784;6.496;2023-02-01T00:58:32;8.70;;;6.95;;
351;SDS011;164;50.784;6.496;2023-02-01T01:01:03;12.18;;;7.13;;
351;SDS011;164;50.784;6.496;2023-02-01T01:03:30;11.60;;;7.72;;
351;SDS011;164;50.784;6.496;2023-02-01T01:06:00;10.65;;;6.22;;
351;SDS011;164;50.784;6.496;2023-02-01T01:08:29;12.65;;;7.50;;
351;SDS011;164;50.784;6.496;2023-02-01T01:10:56;10.77;;;7.45;;
351;SDS011;164;50.784;6.496;2023-02-01T01:13:23;9.25;;;7.60;;
351;SDS011;164;50.784;6.496;2023-02-01T01:15:51;11.25;;;6.60;;
351;SDS011;164;50.784;6.496;2023-02-01T01:18:18;11.90;;;7.53;;
351;SDS011;164;50.784;6.496;2023-02-01T01:20:45;8.73;;;6.60;;
351;SDS011;164;50.784;6.496;2023-02-01T01:23:14;12.88;;;8.07;;
351;SDS011;164;50.784;6.496;2023-02-01T01:25:43;14.18;;;9.45;;
351;SDS011;164;50.784;6.496;2023-02-01T01:28:10;18.15;;;9.25;;
351;SDS011;164;50.784;6.496;2023-02-01T01:30:37;10.80;;;8.00;;
351;SDS011;164;50.784;6.496;2023-02-01T01:33:04;13.35;;;8.60;;
351;SDS011;164;50.784;6.496;2023-02-01T01:35:32;10.77;;;8.35;;
351;SDS011;164;50.784;6.496;2023-02-01T01:37:59;16.27;;;9.25;;
351;SDS011;164;50.784;6.496;2023-02-01T01:40:27;16.67;;;10.52;;
351;SDS011;164;50.784;6.496;2023-02-01T01:42:55;15.85;;;10.32;;
351;SDS011;164;50.784;6.496;2023-02-01T01:45:24;15.23;;;9.00;;
351;SDS011;164;50.784;6.496;2023-02-01T01:47:52;16.10;;;10.48;;
351;SDS011;164;50.784;6.496;2023-02-01T01:50:20;10.18;;;8.27;;
351;SDS011;164;50.784;6.496;2023-02-01T01:52:49;17.13;;;8.80;;
351;SDS011;164;50.784;6.496;2023-02-01T01:55:18;16.20;;;9.18;;
351;SDS011;164;50.784;6.496;2023-02-01T01:57:48;13.45;;;9.10;;
351;SDS011;164;50.784;6.496;2023-02-01T02:00:18;9.77;;;8.77;;
351;SDS011;164;50.784;6.496;2023-02-01T02:02:47;14.75;;;7.63;;
351;SDS011;164;50.784;6.496;2023-02-01T02:05:15;16.50;;;8.20;;
351;SDS011;164;50.784;6.496;2023-02-01T02:07:45;9.77;;;7.15;;
351;SDS011;164;50.784;6.496;2023-02-01T02:10:13;11.85;;;7.10;;
351;SDS011;164;50.784;6.496;2023-02-01T02:12:40;10.77;;;6.15;;
351;SDS011;164;50.784;6.496;2023-02-01T02:15:08;10.57;;;6.18;;
351;SDS011;164;50.784;6.496;2023-02-01T02:17:38;9.60;;;6.13;;
351;SDS011;164;50.784;6.496;2023-02-01T02:25:56;12.65;;;6.97;;
351;SDS011;164;50.784;6.496;2023-02-01T02:28:41;16.88;;;8.35;;
351;SDS011;164;50.784;6.496;2023-02-01T02:31:23;12.63;;;6.68;;
351;SDS011;164;50.784;6.496;2023-02-01T02:33:59;11.98;;;7.00;;
351;SDS011;164;50.784;6.496;2023-02-01T02:36:35;13.55;;;7.38;;
351;SDS011;164;50.784;6.496;2023-02-01T02:39:06;13.77;;;6.50;;
351;SDS011;164;50.784;6.496;2023-02-01T02:46:46;17.38;;;8.43;;
351;SDS011;164;50.784;6.496;2023-02-01T02:49:34;10.05;;;5.75;;
351;SDS011;164;50.784;6.496;2023-02-01T02:52:04;18.13;;;8.68;;
351;SDS011;164;50.784;6.496;2023-02-01T02:54:50;14.07;;;6.30;;
351;SDS011;164;50.784;6.496;2023-02-01T02:57:21;16.42;;;7.57;;
351;SDS011;164;50.784;6.496;2023-02-01T03:00:08;12.07;;;7.00;;
351;SDS011;164;50.784;6.496;2023-02-01T03:02:54;13.20;;;7.25;;
351;SDS011;164;50.784;6.496;2023-02-01T03:05:41;12.50;;;6.50;;
351;SDS011;164;50.784;6.496;2023-02-01T03:08:09;16.15;;;7.25;;
351;SDS011;164;50.784;6.496;2023-02-01T03:13:31;12.88;;;7.18;;
351;SDS011;164;50.784;6.496;2023-02-01T03:16:00;13.60;;;8.05;;
351;SDS011;164;50.784;6.496;2023-02-01T03:18:30;14.70;;;7.03;;
351;SDS011;164;50.784;6.496;2023-02-01T03:21:02;8.48;;;6.03;;
351;SDS011;164;50.784;6.496;2023-02-01T03:23:35;16.05;;;7.80;;
351;SDS011;164;50.784;6.496;2023-02-01T03:26:05;11.05;;;7.32;;
351;SDS011;164;50.784;6.496;2023-02-01T03:28:34;13.02;;;7.70;;
351;SDS011;164;50.784;6.496;2023-02-01T03:31:02;15.10;;;8.48;;
351;SDS011;164;50.784;6.496;2023-02-01T03:33:30;13.25;;;7.55;;
351;SDS011;164;50.784;6.496;2023-02-01T03:36:01;21.25;;;9.40;;
351;SDS011;164;50.784;6.496;2023-02-01T03:38:32;14.65;;;8.25;;
351;SDS011;164;50.784;6.496;2023-02-01T03:41:02;11.63;;;8.43;;
351;SDS011;164;50.784;6.496;2023-02-01T03:43:31;22.75;;;7.72;;
351;SDS011;164;50.784;6.496;2023-02-01T03:46:01;15.18;;;7.50;;
351;SDS011;164;50.784;6.496;2023-02-01T03:48:30;16.15;;;7.70;;
351;SDS011;164;50.784;6.496;2023-02-01T03:50:58;13.18;;;8.55;;
351;SDS011;164;50.784;6.496;2023-02-01T03:53:27;15.40;;;8.82;;
351;SDS011;164;50.784;6.496;2023-02-01T03:55:55;18.15;;;7.45;;
351;SDS011;164;50.784;6.496;2023-02-01T03:58:23;14.23;;;7.53;;
351;SDS011;164;50.784;6.496;2023-02-01T04:00:51;9.63;;;6.88;;
351;SDS011;164;50.784;6.496;2023-02-01T04:03:18;14.25;;;6.70;;
351;SDS011;164;50.784;6.496;2023-02-01T04:05:46;19.40;;;8.80;;
351;SDS011;164;50.784;6.496;2023-02-01T04:08:13;19.20;;;8.88;;
351;SDS011;164;50.784;6.496;2023-02-01T04:10:42;22.45;;;7.88;;
351;SDS011;164;50.784;6.496;2023-02-01T04:13:09;11.55;;;6.88;;
351;SDS011;164;50.784;6.496;2023-02-01T04:15:36;13.05;;;7.63;;
351;SDS011;164;50.784;6.496;2023-02-01T04:18:04;11.80;;;7.15;;
351;SDS011;164;50.784;6.496;2023-02-01T04:20:31;12.07;;;6.97;;
351;SDS011;164;50.784;6.496;2023-02-01T04:22:58;13.70;;;6.88;;
351;SDS011;164;50.784;6.496;2023-02-01T04:25:28;19.30;;;7.90;;
351;SDS011;164;50.784;6.496;2023-02-01T04:27:56;11.10;;;6.30;;
351;SDS011;164;50.784;6.496;2023-02-01T04:30:24;21.95;;;6.80;;
351;SDS011;164;50.784;6.496;2023-02-01T04:32:51;7.88;;;5.15;;
351;SDS011;164;50.784;6.496;2023-02-01T04:35:18;15.77;;;6.07;;
351;SDS011;164;50.784;6.496;2023-02-01T04:37:47;13.88;;;6.53;;
351;SDS011;164;50.784;6.496;2023-02-01T04:40:14;11.32;;;5.53;;
351;SDS011;164;50.784;6.496;2023-02-01T04:42:41;13.77;;;5.32;;
351;SDS011;164;50.784;6.496;2023-02-01T04:45:10;13.27;;;6.65;;
351;SDS011;164;50.784;6.496;2023-02-01T04:47:38;15.93;;;5.82;;
351;SDS011;164;50.784;6.496;2023-02-01T04:53:18;12.15;;;4.93;;
351;SDS011;164;50.784;6.496;2023-02-01T04:55:47;12.95;;;5.55;;
351;SDS011;164;50.784;6.496;2023-02-01T04:58:14;6.70;;;4.10;;
351;SDS011;164;50.784;6.496;2023-02-01T05:00:43;13.55;;;5.30;;
351;SDS011;164;50.784;6.496;2023-02-01T05:03:10;13.85;;;4.72;;
351;SDS011;164;50.784;6.496;2023-02-01T05:05:37;11.65;;;4.60;;
351;SDS011;164;50.784;6.496;2023-02-01T05:08:04;7.40;;;3.17;;
351;SDS011;164;50.784;6.496;2023-02-01T05:10:32;10.25;;;4.40;;
351;SDS011;164;50.784;6.496;2023-02-01T05:12:59;10.75;;;4.68;;
351;SDS011;164;50.784;6.496;2023-02-01T05:15:45;17.88;;;5.70;;
351;SDS011;164;50.784;6.496;2023-02-01T05:18:12;9.63;;;4.15;;
351;SDS011;164;50.784;6.496;2023-02-01T05:20:39;17.15;;;5.40;;
351;SDS011;164;50.784;6.496;2023-02-01T05:23:06;10.40;;;4.15;;
351;SDS011;164;50.784;6.496;2023-02-01T05:25:34;10.45;;;3.90;;
351;SDS011;164;50.784;6.496;2023-02-01T05:28:01;12.48;;;4.47;;
351;SDS011;164;50.784;6.496;2023-02-01T05:30:28;12.65;;;5.10;;
351;SDS011;164;50.784;6.496;2023-02-01T05:32:58;11.63;;;5.00;;
351;SDS011;164;50.784;6.496;2023-02-01T05:35:26;11.68;;;3.95;;
351;SDS011;164;50.784;6.496;2023-02-01T05:37:53;8.07;;;3.67;;
351;SDS011;164;50.784;6.496;2023-02-01T05:40:20;9.60;;;3.60;;
351;SDS011;164;50.784;6.496;2023-02-01T05:42:47;10.05;;;4.18;;
351;SDS011;164;50.784;6.496;2023-02-01T05:45:14;10.02;;;4.28;;
351;SDS011;164;50.784;6.496;2023-02-01T05:47:41;11.85;;;5.45;;
351;SDS011;164;50.784;6.496;2023-02-01T05:50:10;5.55;;;3.28;;
351;SDS011;164;50.784;6.496;2023-02-01T05:52:37;9.32;;;4.65;;
351;SDS011;164;50.784;6.496;2023-02-01T05:55:04;14.20;;;4.38;;
351;SDS011;164;50.784;6.496;2023-02-01T05:57:32;8.73;;;3.72;;
351;SDS011;164;50.784;6.496;2023-02-01T05:59:59;12.10;;;4.22;;
351;SDS011;164;50.784;6.496;2023-02-01T06:02:26;15.50;;;5.55;;
351;SDS011;164;50.784;6.496;2023-02-01T06:04:53;10.43;;;4.45;;
351;SDS011;164;50.784;6.496;2023-02-01T06:07:22;6.55;;;3.80;;
351;SDS011;164;50.784;6.496;2023-02-01T06:09:49;17.15;;;5.05;;
351;SDS011;164;50.784;6.496;2023-02-01T06:12:16;9.63;;;4.25;;
351;SDS011;164;50.784;6.496;2023-02-01T06:14:43;10.05;;;4.15;;
351;SDS011;164;50.784;6.496;2023-02-01T06:17:11;21.23;;;5.85;;
351;SDS011;164;50.784;6.496;2023-02-01T06:19:38;8.77;;;4.38;;
351;SDS011;164;50.784;6.496;2023-02-01T06:22:06;16.40;;;5.47;;
351;SDS011;164;50.784;6.496;2023-02-01T06:24:34;9.98;;;4.15;;
351;SDS011;164;50.784;6.496;2023-02-01T06:27:02;14.38;;;4.10;;
351;SDS011;164;50.784;6.496;2023-02-01T06:29:29;17.27;;;5.85;;
351;SDS011;164;50.784;6.496;2023-02-01T06:31:56;11.65;;;4.38;;
351;SDS011;164;50.784;6.496;2023-02-01T06:34:23;13.20;;;4.82;;
351;SDS011;164;50.784;6.496;2023-02-01T06:36:50;12.75;;;4.28;;
351;SDS011;164;50.784;6.496;2023-02-01T06:39:18;11.98;;;4.85;;
351;SDS011;164;50.784;6.496;2023-02-01T06:41:47;9.43;;;4.63;;
351;SDS011;164;50.784;6.496;2023-02-01T06:44:14;16.73;;;5.22;;
351;SDS011;164;50.784;6.496;2023-02-01T06:46:41;16.50;;;4.80;;
351;SDS011;164;50.784;6.496;2023-02-01T06:49:09;11.52;;;4.45;;
351;SDS011;164;50.784;6.496;2023-02-01T06:51:36;11.57;;;4.20;;
351;SDS011;164;50.784;6.496;2023-02-01T06:54:03;12.10;;;4.50;;
351;SDS011;164;50.784;6.496;2023-02-01T06:56:30;11.85;;;5.18;;
351;SDS011;164;50.784;6.496;2023-02-01T06:58:59;9.57;;;4.53;;
351;SDS011;164;50.784;6.496;2023-02-01T07:01:26;12.13;;;6.25;;
351;SDS011;164;50.784;6.496;2023-02-01T07:03:53;16.65;;;4.97;;
351;SDS011;164;50.784;6.496;2023-02-01T07:06:20;17.30;;;4.75;;
351;SDS011;164;50.784;6.496;2023-02-01T07:08:48;18.33;;;6.82;;
351;SDS011;164;50.784;6.496;2023-02-01T07:11:16;14.50;;;5.35;;
351;SDS011;164;50.784;6.496;2023-02-01T07:13:43;10.13;;;5.07;;
351;SDS011;164;50.784;6.496;2023-02-01T07:16:13;7.60;;;4.20;;
351;SDS011;164;50.784;6.496;2023-02-01T07:18:40;12.73;;;5.18;;
351;SDS011;164;50.784;6.496;2023-02-01T07:21:08;11.50;;;4.63;;
351;SDS011;164;50.784;6.496;2023-02-01T07:23:35;9.10;;;4.53;;
351;SDS011;164;50.784;6.496;2023-02-01T07:26:04;9.75;;;4.32;;
351;SDS011;164;50.784;6.496;2023-02-01T07:28:32;13.20;;;5.28;;
351;SDS011;164;50.784;6.496;2023-02-01T07:31:03;10.40;;;4.65;;
351;SDS011;164;50.784;6.496;2023-02-01T07:33:32;10.48;;;4.72;;
351;SDS011;164;50.784;6.496;2023-02-01T07:36:00;13.65;;;5.53;;
351;SDS011;164;50.784;6.496;2023-02-01T07:38:27;16.80;;;4.40;;
351;SDS011;164;50.784;6.496;2023-02-01T07:40:56;9.65;;;4.25;;
351;SDS011;164;50.784;6.496;2023-02-01T07:43:24;11.00;;;6.90;;
351;SDS011;164;50.784;6.496;2023-02-01T07:45:51;14.05;;;5.47;;
351;SDS011;164;50.784;6.496;2023-02-01T07:48:19;18.70;;;6.35;;
351;SDS011;164;50.784;6.496;2023-02-01T07:50:48;15.68;;;4.80;;
351;SDS011;164;50.784;6.496;2023-02-01T07:53:15;15.52;;;6.05;;
351;SDS011;164;50.784;6.496;2023-02-01T07:55:42;13.20;;;6.05;;
351;SDS011;164;50.784;6.496;2023-02-01T07:58:09;12.60;;;4.72;;
351;SDS011;164;50.784;6.496;2023-02-01T08:00:36;12.20;;;5.20;;
351;SDS011;164;50.784;6.496;2023-02-01T08:03:21;15.25;;;5.32;;
351;SDS011;164;50.784;6.496;2023-02-01T08:05:54;10.82;;;5.18;;
351;SDS011;164;50.784;6.496;2023-02-01T08:08:21;10.25;;;4.53;;
351;SDS011;164;50.784;6.496;2023-02-01T08:10:49;10.55;;;4.95;;
351;SDS011;164;50.784;6.496;2023-02-01T08:13:16;18.30;;;5.50;;
351;SDS011;164;50.784;6.496;2023-02-01T08:15:43;11.45;;;4.50;;
351;SDS011;164;50.784;6.496;2023-02-01T08:18:10;9.25;;;4.35;;
351;SDS011;164;50.784;6.496;2023-02-01T08:20:41;8.73;;;4.10;;
351;SDS011;164;50.784;6.496;2023-02-01T08:23:12;10.60;;;4.57;;
351;SDS011;164;50.784;6.496;2023-02-01T08:25:39;8.38;;;4.25;;
351;SDS011;164;50.784;6.496;2023-02-01T08:28:06;6.30;;;3.30;;
351;SDS011;164;50.784;6.496;2023-02-01T08:30:34;11.35;;;5.38;;
351;SDS011;164;50.784;6.496;2023-02-01T08:33:03;9.73;;;4.28;;
351;SDS011;164;50.784;6.496;2023-02-01T08:35:31;11.35;;;5.20;;
351;SDS011;164;50.784;6.496;2023-02-01T08:37:59;11.27;;;5.25;;
351;SDS011;164;50.784;6.496;2023-02-01T08:45:39;18.02;;;5.60;;
351;SDS011;164;50.784;6.496;2023-02-01T08:48:06;10.40;;;5.18;;
351;SDS011;164;50.784;6.496;2023-02-01T08:50:33;7.78;;;4.32;;
351;SDS011;164;50.784;6.496;2023-02-01T08:53:01;6.47;;;3.83;;
351;SDS011;164;50.784;6.496;2023-02-01T08:55:28;11.43;;;4.18;;
351;SDS011;164;50.784;6.496;2023-02-01T08:57:55;11.68;;;4.95;;
351;SDS011;164;50.784;6.496;2023-02-01T09:00:23;9.40;;;3.80;;
351;SDS011;164;50.784;6.496;2023-02-01T09:02:52;11.75;;;3.95;;
351;SDS011;164;50.784;6.496;2023-02-01T09:05:20;15.80;;;5.05;;
351;SDS011;164;50.784;6.496;2023-02-01T09:07:48;7.57;;;3.65;;
351;SDS011;164;50.784;6.496;2023-02-01T09:10:16;9.75;;;3.92;;
351;SDS011;164;50.784;6.496;2023-02-01T09:12:43;8.15;;;4.13;;
351;SDS011;164;50.784;6.496;2023-02-01T09:15:10;9.98;;;3.70;;
351;SDS011;164;50.784;6.496;2023-02-01T09:17:37;8.57;;;3.63;;
351;SDS011;164;50.784;6.496;2023-02-01T09:20:09;6.85;;;2.78;;
351;SDS011;164;50.784;6.496;2023-02-01T09:22:36;11.70;;;3.97;;
351;SDS011;164;50.784;6.496;2023-02-01T09:25:04;12.73;;;3.88;;
351;SDS011;164;50.784;6.496;2023-02-01T09:27:31;11.10;;;3.80;;
351;SDS011;164;50.784;6.496;2023-02-01T09:29:59;9.65;;;3.75;;
351;SDS011;164;50.784;6.496;2023-02-01T09:32:26;14.45;;;4.13;;
351;SDS011;164;50.784;6.496;2023-02-01T09:34:53;10.02;;;4.05;;
351;SDS011;164;50.784;6.496;2023-02-01T09:37:22;12.10;;;4.70;;
351;SDS011;164;50.784;6.496;2023-02-01T09:39:49;10.52;;;3.67;;
351;SDS011;164;50.784;6.496;2023-02-01T09:42:20;11.48;;;4.05;;
351;SDS011;164;50.784;6.496;2023-02-01T09:44:52;9.25;;;3.70;;
351;SDS011;164;50.784;6.496;2023-02-01T09:47:22;8.98;;;4.10;;
351;SDS011;164;50.784;6.496;2023-02-01T09:49:54;10.80;;;3.88;;
351;SDS011;164;50.784;6.496;2023-02-01T09:52:25;9.63;;;3.70;;
351;SDS011;164;50.784;6.496;2023-02-01T09:54:55;12.25;;;4.78;;
351;SDS011;164;50.784;6.496;2023-02-01T09:57:27;15.23;;;5.35;;
351;SDS011;164;50.784;6.496;2023-02-01T09:59:57;9.98;;;3.95;;
351;SDS011;164;50.784;6.496;2023-02-01T10:02:27;12.15;;;3.55;;
351;SDS011;164;50.784;6.496;2023-02-01T10:04:57;11.82;;;4.53;;
351;SDS011;164;50.784;6.496;2023-02-01T10:07:28;8.38;;;3.95;;
351;SDS011;164;50.784;6.496;2023-02-01T10:10:00;14.25;;;4.63;;
351;SDS011;164;50.784;6.496;2023-02-01T10:12:49;9.07;;;3.40;;
351;SDS011;164;50.784;6.496;2023-02-01T10:15:26;11.15;;;4.40;;
351;SDS011;164;50.784;6.496;2023-02-01T10:18:00;13.82;;;3.15;;
351;SDS011;164;50.784;6.496;2023-02-01T10:20:30;7.90;;;4.28;;
351;SDS011;164;50.784;6.496;2023-02-01T10:23:10;12.55;;;3.97;;
351;SDS011;164;50.784;6.496;2023-02-01T10:25:43;15.07;;;4.25;;
351;SDS011;164;50.784;6.496;2023-02-01T10:28:12;6.95;;;4.05;;
351;SDS011;164;50.784;6.496;2023-02-01T10:30:41;15.05;;;5.50;;
351;SDS011;164;50.784;6.496;2023-02-01T10:33:14;10.13;;;4.05;;
351;SDS011;164;50.784;6.496;2023-02-01T10:35:42;13.85;;;4.45;;
351;SDS011;164;50.784;6.496;2023-02-01T10:38:15;7.57;;;4.03;;
351;SDS011;164;50.784;6.496;2023-02-01T10:40:44;10.00;;;4.38;;
351;SDS011;164;50.784;6.496;2023-02-01T10:43:11;8.85;;;3.75;;
351;SDS011;164;50.784;6.496;2023-02-01T10:45:38;12.38;;;3.53;;
351;SDS011;164;50.784;6.496;2023-02-01T10:48:12;13.38;;;4.07;;
351;SDS011;164;50.784;6.496;2023-02-01T10:50:41;10.73;;;3.80;;
351;SDS011;164;50.784;6.496;2023-02-01T10:53:14;11.73;;;3.90;;
351;SDS011;164;50.784;6.496;2023-02-01T10:55:46;11.27;;;4.10;;
351;SDS011;164;50.784;6.496;2023-02-01T10:58:15;10.68;;;3.95;;
351;SDS011;164;50.784;6.496;2023-02-01T11:00:43;9.00;;;3.75;;
351;SDS011;164;50.784;6.496;2023-02-01T11:03:22;13.48;;;3.75;;
351;SDS011;164;50.784;6.496;2023-02-01T11:05:54;8.88;;;4.07;;
351;SDS011;164;50.784;6.496;2023-02-01T11:08:23;12.40;;;4.38;;
351;SDS011;164;50.784;6.496;2023-02-01T11:10:56;9.75;;;3.72;;
351;SDS011;164;50.784;6.496;2023-02-01T11:13:27;6.90;;;3.50;;
351;SDS011;164;50.784;6.496;2023-02-01T11:15:55;9.50;;;3.75;;
351;SDS011;164;50.784;6.496;2023-02-01T11:18:35;13.05;;;3.60;;
351;SDS011;164;50.784;6.496;2023-02-01T11:21:03;9.73;;;3.38;;
351;SDS011;164;50.784;6.496;2023-02-01T11:23:32;5.50;;;3.15;;
351;SDS011;164;50.784;6.496;2023-02-01T11:26:01;7.82;;;3.20;;
351;SDS011;164;50.784;6.496;2023-02-01T11:28:35;11.00;;;4.20;;
351;SDS011;164;50.784;6.496;2023-02-01T11:31:04;7.13;;;3.30;;
351;SDS011;164;50.784;6.496;2023-02-01T11:33:33;9.30;;;3.35;;
351;SDS011;164;50.784;6.496;2023-02-01T11:36:06;7.88;;;3.33;;
351;SDS011;164;50.784;6.496;2023-02-01T11:38:35;11.90;;;3.65;;
351;SDS011;164;50.784;6.496;2023-02-01T11:41:11;8.52;;;3.25;;
351;SDS011;164;50.784;6.496;2023-02-01T11:43:38;12.07;;;4.30;;
351;SDS011;164;50.784;6.496;2023-02-01T11:46:17;7.78;;;3.15;;
351;SDS011;164;50.784;6.496;2023-02-01T11:48:49;8.00;;;3.63;;
351;SDS011;164;50.784;6.496;2023-02-01T11:51:19;9.05;;;3.35;;
351;SDS011;164;50.784;6.496;2023-02-01T11:56:43;10.57;;;3.65;;
351;SDS011;164;50.784;6.496;2023-02-01T11:59:23;6.65;;;3.55;;
351;SDS011;164;50.784;6.496;2023-02-01T12:04:46;11.18;;;3.95;;
351;SDS011;164;50.784;6.496;2023-02-01T12:07:18;8.20;;;3.67;;
351;SDS011;164;50.784;6.496;2023-02-01T12:09:50;26.50;;;14.95;;
351;SDS011;164;50.784;6.496;2023-02-01T12:12:25;9.73;;;3.08;;
351;SDS011;164;50.784;6.496;2023-02-01T12:17:41;12.20;;;3.15;;
351;SDS011;164;50.784;6.496;2023-02-01T12:20:12;9.35;;;2.53;;
351;SDS011;164;50.784;6.496;2023-02-01T12:22:46;9.00;;;3.55;;
351;SDS011;164;50.784;6.496;2023-02-01T12:28:14;5.65;;;2.88;;
351;SDS011;164;50.784;6.496;2023-02-01T12:30:46;15.27;;;4.00;;
351;SDS011;164;50.784;6.496;2023-02-01T12:33:18;9.68;;;4.10;;
351;SDS011;164;50.784;6.496;2023-02-01T12:35:50;9.25;;;3.80;;
351;SDS011;164;50.784;6.496;2023-02-01T12:38:29;15.07;;;4.35;;
351;SDS011;164;50.784;6.496;2023-02-01T12:41:02;8.30;;;3.15;;
351;SDS011;164;50.784;6.496;2023-02-01T12:43:36;7.55;;;3.08;;
351;SDS011;164;50.784;6.496;2023-02-01T12:46:07;6.70;;;3.03;;
351;SDS011;164;50.784;6.496;2023-02-01T12:48:36;9.30;;;2.90;;
351;SDS011;164;50.784;6.496;2023-02-01T12:51:07;7.63;;;2.92;;
351;SDS011;164;50.784;6.496;2023-02-01T12:53:41;11.15;;;3.97;;
351;SDS011;164;50.784;6.496;2023-02-01T12:56:10;7.20;;;2.97;;
351;SDS011;164;50.784;6.496;2023-02-01T12:58:42;7.13;;;2.70;;
351;SDS011;164;50.784;6.496;2023-02-01T13:01:12;10.52;;;4.03;;
351;SDS011;164;50.784;6.496;2023-02-01T13:03:42;8.57;;;3.15;;
351;SDS011;164;50.784;6.496;2023-02-01T13:06:12;11.38;;;4.10;;
351;SDS011;164;50.784;6.496;2023-02-01T13:08:42;9.00;;;4.15;;
351;SDS011;164;50.784;6.496;2023-02-01T13:11:11;13.52;;;4.13;;
351;SDS011;164;50.784;6.496;2023-02-01T13:13:44;11.73;;;3.15;;
351;SDS011;164;50.784;6.496;2023-02-01T13:16:14;5.40;;;2.80;;
351;SDS011;164;50.784;6.496;2023-02-01T13:18:43;7.65;;;3.72;;
351;SDS011;164;50.784;6.496;2023-02-01T13:21:12;12.05;;;3.50;;
351;SDS011;164;50.784;6.496;2023-02-01T13:23:41;12.00;;;3.60;;
351;SDS011;164;50.784;6.496;2023-02-01T13:26:10;8.38;;;3.25;;
351;SDS011;164;50.784;6.496;2023-02-01T13:28:40;9.95;;;3.33;;
351;SDS011;164;50.784;6.496;2023-02-01T13:31:16;8.70;;;4.28;;
351;SDS011;164;50.784;6.496;2023-02-01T13:33:52;7.80;;;3.70;;
351;SDS011;164;50.784;6.496;2023-02-01T13:42:11;8.63;;;2.90;;
351;SDS011;164;50.784;6.496;2023-02-01T13:44:42;10.60;;;3.60;;
351;SDS011;164;50.784;6.496;2023-02-01T13:47:12;14.15;;;4.22;;
351;SDS011;164;50.784;6.496;2023-02-01T13:49:43;6.30;;;2.88;;
351;SDS011;164;50.784;6.496;2023-02-01T13:52:21;7.35;;;3.05;;
351;SDS011;164;50.784;6.496;2023-02-01T13:54:58;10.70;;;4.45;;
351;SDS011;164;50.784;6.496;2023-02-01T13:57:34;7.13;;;3.40;;
351;SDS011;164;50.784;6.496;2023-02-01T14:00:06;11.85;;;3.05;;
351;SDS011;164;50.784;6.496;2023-02-01T14:08:10;12.32;;;3.95;;
351;SDS011;164;50.784;6.496;2023-02-01T14:10:48;5.47;;;3.22;;
351;SDS011;164;50.784;6.496;2023-02-01T14:13:22;7.68;;;3.25;;
351;SDS011;164;50.784;6.496;2023-02-01T14:18:49;8.80;;;3.10;;
351;SDS011;164;50.784;6.496;2023-02-01T14:21:18;11.88;;;3.55;;
351;SDS011;164;50.784;6.496;2023-02-01T14:23:48;8.07;;;3.40;;
351;SDS011;164;50.784;6.496;2023-02-01T14:26:21;6.82;;;2.17;;
351;SDS011;164;50.784;6.496;2023-02-01T14:28:52;8.82;;;2.55;;
351;SDS011;164;50.784;6.496;2023-02-01T14:31:28;6.88;;;3.05;;
351;SDS011;164;50.784;6.496;2023-02-01T14:33:58;9.80;;;2.45;;
351;SDS011;164;50.784;6.496;2023-02-01T14:36:26;7.05;;;2.45;;
351;SDS011;164;50.784;6.496;2023-02-01T14:39:17;8.77;;;2.75;;
351;SDS011;164;50.784;6.496;2023-02-01T14:44:41;7.45;;;2.38;;
351;SDS011;164;50.784;6.496;2023-02-01T14:49:53;9.45;;;2.72;;
351;SDS011;164;50.784;6.496;2023-02-01T14:52:22;6.90;;;3.03;;
351;SDS011;164;50.784;6.496;2023-02-01T14:54:53;9.45;;;2.00;;
351;SDS011;164;50.784;6.496;2023-02-01T14:57:23;10.80;;;2.50;;
351;SDS011;164;50.784;6.496;2023-02-01T14:59:53;8.43;;;2.63;;
351;SDS011;164;50.784;6.496;2023-02-01T15:02:23;4.13;;;1.70;;
351;SDS011;164;50.784;6.496;2023-02-01T15:04:53;4.50;;;2.25;;
351;SDS011;164;50.784;6.496;2023-02-01T15:07:21;6.82;;;2.85;;
351;SDS011;164;50.784;6.496;2023-02-01T15:09:49;6.25;;;2.95;;
351;SDS011;164;50.784;6.496;2023-02-01T15:12:22;4.60;;;2.28;;
351;SDS011;164;50.784;6.496;2023-02-01T15:15:03;8.75;;;2.83;;
351;SDS011;164;50.784;6.496;2023-02-01T15:17:32;5.18;;;2.53;;
351;SDS011;164;50.784;6.496;2023-02-01T15:20:01;7.80;;;3.28;;
351;SDS011;164;50.784;6.496;2023-02-01T15:22:29;7.68;;;2.20;;
351;SDS011;164;50.784;6.496;2023-02-01T15:24:57;12.50;;;2.10;;
351;SDS011;164;50.784;6.496;2023-02-01T15:27:27;7.40;;;2.50;;
351;SDS011;164;50.784;6.496;2023-02-01T15:29:54;7.68;;;2.03;;
351;SDS011;164;50.784;6.496;2023-02-01T15:32:28;8.25;;;2.10;;
351;SDS011;164;50.784;6.496;2023-02-01T15:34:56;4.45;;;2.13;;
351;SDS011;164;50.784;6.496;2023-02-01T15:37:23;5.15;;;2.40;;
351;SDS011;164;50.784;6.496;2023-02-01T15:40:03;6.15;;;1.75;;
351;SDS011;164;50.784;6.496;2023-02-01T15:42:34;7.55;;;2.70;;
351;SDS011;164;50.784;6.496;2023-02-01T15:45:01;4.50;;;2.00;;
351;SDS011;164;50.784;6.496;2023-02-01T15:47:29;5.15;;;1.80;;
351;SDS011;164;50.784;6.496;2023-02-01T15:49:58;6.93;;;2.20;;
351;SDS011;164;50.784;6.496;2023-02-01T15:52:27;7.22;;;2.53;;
351;SDS011;164;50.784;6.496;2023-02-01T15:54:59;12.38;;;3.20;;
351;SDS011;164;50.784;6.496;2023-02-01T15:57:29;3.63;;;2.13;;
351;SDS011;164;50.784;6.496;2023-02-01T15:59:59;8.82;;;2.47;;
351;SDS011;164;50.784;6.496;2023-02-01T16:02:29;7.82;;;2.75;;
351;SDS011;164;50.784;6.496;2023-02-01T16:04:59;5.60;;;2.25;;
351;SDS011;164;50.784;6.496;2023-02-01T16:07:28;3.63;;;2.38;;
351;SDS011;164;50.784;6.496;2023-02-01T16:09:56;10.68;;;3.00;;
351;SDS011;164;50.784;6.496;2023-02-01T16:12:28;8.55;;;3.25;;
351;SDS011;164;50.784;6.496;2023-02-01T16:14:55;8.32;;;3.35;;
351;SDS011;164;50.784;6.496;2023-02-01T16:17:24;6.85;;;3.35;;
351;SDS011;164;50.784;6.496;2023-02-01T16:19:52;8.43;;;4.53;;
351;SDS011;164;50.784;6.496;2023-02-01T16:22:19;10.18;;;3.80;;
351;SDS011;164;50.784;6.496;2023-02-01T16:24:46;6.78;;;3.20;;
351;SDS011;164;50.784;6.496;2023-02-01T16:27:14;9.45;;;3.25;;
351;SDS011;164;50.784;6.496;2023-02-01T16:29:41;9.13;;;3.25;;
351;SDS011;164;50.784;6.496;2023-02-01T16:32:11;8.23;;;3.33;;
351;SDS011;164;50.784;6.496;2023-02-01T16:34:44;12.25;;;3.72;;
351;SDS011;164;50.784;6.496;2023-02-01T16:37:12;8.40;;;3.58;;
351;SDS011;164;50.784;6.496;2023-02-01T16:39:39;7.07;;;4.22;;
351;SDS011;164;50.784;6.496;2023-02-01T16:42:10;12.88;;;3.88;;
351;SDS011;164;50.784;6.496;2023-02-01T16:44:38;9.63;;;3.78;;